sensor_id;sensor_type;location;lat;lon;timestamp;P1;durP1;ratioP1;P2;durP2;ratioP2
21959;SDS011;11144;43.030;25.108;2022-12-07T00:01:05;16.70;;;7.55;;
21959;SDS011;11144;43.030;25.108;2022-12-07T00:02:39;13.90;;;6.82;;
21959;SDS011;11144;43.030;25.108;2022-12-07T00:04:14;13.88;;;6.45;;
21959;SDS011;11144;43.030;25.108;2022-12-07T00:05:48;13.77;;;6.45;;
21959;SDS011;11144;43.030;25.108;2022-12-07T00:07:22;16.60;;;7.35;;
21959;SDS011;11144;43.030;25.108;2022-12-07T00:09:00;18.38;;;7.50;;
21959;SDS011;11144;43.030;25.108;2022-12-07T00:10:33;16.17;;;7.70;;
21959;SDS011;11144;43.030;25.108;2022-12-07T00:12:08;17.67;;;8.68;;
21959;SDS011;11144;43.030;25.108;2022-12-07T00:13:41;15.45;;;8.15;;
21959;SDS011;11144;43.030;25.108;2022-12-07T00:15:21;16.52;;;8.27;;
21959;SDS011;11144;43.030;25.108;2022-12-07T00:16:54;15.73;;;7.57;;
21959;SDS011;11144;43.030;25.108;2022-12-07T00:18:28;20.98;;;10.50;;
21959;SDS011;11144;43.030;25.108;2022-12-07T00:20:02;21.27;;;10.00;;
21959;SDS011;11144;43.030;25.108;2022-12-07T00:21:36;18.45;;;8.40;;
21959;SDS011;11144;43.030;25.108;2022-12-07T00:23:09;17.80;;;9.02;;
21959;SDS011;11144;43.030;25.108;2022-12-07T00:24:44;17.33;;;7.85;;
21959;SDS011;11144;43.030;25.108;2022-12-07T00:26:19;18.85;;;8.55;;
21959;SDS011;11144;43.030;25.108;2022-12-07T00:27:55;18.70;;;8.48;;
21959;SDS011;11144;43.030;25.108;2022-12-07T00:29:29;14.68;;;7.63;;
21959;SDS011;11144;43.030;25.108;2022-12-07T00:31:03;20.15;;;8.38;;
21959;SDS011;11144;43.030;25.108;2022-12-07T00:32:37;21.63;;;7.88;;
21959;SDS011;11144;43.030;25.108;2022-12-07T00:34:11;16.63;;;7.75;;
21959;SDS011;11144;43.030;25.108;2022-12-07T00:35:54;20.77;;;8.50;;
21959;SDS011;11144;43.030;25.108;2022-12-07T00:37:28;20.05;;;8.63;;
21959;SDS011;11144;43.030;25.108;2022-12-07T00:39:02;13.77;;;6.80;;
21959;SDS011;11144;43.030;25.108;2022-12-07T00:40:37;16.20;;;8.55;;
21959;SDS011;11144;43.030;25.108;2022-12-07T00:42:11;14.35;;;7.03;;
21959;SDS011;11144;43.030;25.108;2022-12-07T00:43:44;20.77;;;7.88;;
21959;SDS011;11144;43.030;25.108;2022-12-07T00:45:18;21.42;;;8.55;;
21959;SDS011;11144;43.030;25.108;2022-12-07T00:46:51;20.25;;;8.10;;
21959;SDS011;11144;43.030;25.108;2022-12-07T00:48:25;14.85;;;7.75;;
21959;SDS011;11144;43.030;25.108;2022-12-07T00:49:59;18.85;;;6.80;;
21959;SDS011;11144;43.030;25.108;2022-12-07T00:51:33;17.00;;;7.88;;
21959;SDS011;11144;43.030;25.108;2022-12-07T00:53:07;15.70;;;7.07;;
21959;SDS011;11144;43.030;25.108;2022-12-07T00:54:40;13.88;;;6.80;;
21959;SDS011;11144;43.030;25.108;2022-12-07T00:56:16;14.23;;;6.90;;
21959;SDS011;11144;43.030;25.108;2022-12-07T00:57:52;15.38;;;7.47;;
21959;SDS011;11144;43.030;25.108;2022-12-07T00:59:25;17.05;;;7.25;;
21959;SDS011;11144;43.030;25.108;2022-12-07T01:00:59;15.88;;;7.80;;
21959;SDS011;11144;43.030;25.108;2022-12-07T01:02:34;16.08;;;7.78;;
21959;SDS011;11144;43.030;25.108;2022-12-07T01:04:07;18.83;;;7.78;;
21959;SDS011;11144;43.030;25.108;2022-12-07T01:05:41;19.85;;;7.30;;
21959;SDS011;11144;43.030;25.108;2022-12-07T01:07:22;16.90;;;8.52;;
21959;SDS011;11144;43.030;25.108;2022-12-07T01:08:56;15.60;;;8.18;;
21959;SDS011;11144;43.030;25.108;2022-12-07T01:10:30;28.73;;;11.82;;
21959;SDS011;11144;43.030;25.108;2022-12-07T01:12:05;23.67;;;9.43;;
21959;SDS011;11144;43.030;25.108;2022-12-07T01:13:39;19.98;;;7.55;;
21959;SDS011;11144;43.030;25.108;2022-12-07T01:15:12;19.38;;;7.82;;
21959;SDS011;11144;43.030;25.108;2022-12-07T01:16:45;21.90;;;7.82;;
21959;SDS011;11144;43.030;25.108;2022-12-07T01:18:19;17.77;;;7.72;;
21959;SDS011;11144;43.030;25.108;2022-12-07T01:19:52;16.13;;;7.22;;
21959;SDS011;11144;43.030;25.108;2022-12-07T01:21:26;18.30;;;8.38;;
21959;SDS011;11144;43.030;25.108;2022-12-07T01:23:02;17.30;;;7.68;;
21959;SDS011;11144;43.030;25.108;2022-12-07T01:24:37;15.48;;;7.75;;
21959;SDS011;11144;43.030;25.108;2022-12-07T01:26:12;20.42;;;8.43;;
21959;SDS011;11144;43.030;25.108;2022-12-07T01:27:48;21.55;;;7.97;;
21959;SDS011;11144;43.030;25.108;2022-12-07T01:29:21;14.98;;;7.75;;
21959;SDS011;11144;43.030;25.108;2022-12-07T01:30:56;18.35;;;7.70;;
21959;SDS011;11144;43.030;25.108;2022-12-07T01:32:34;17.58;;;8.10;;
21959;SDS011;11144;43.030;25.108;2022-12-07T01:34:07;18.02;;;7.72;;
21959;SDS011;11144;43.030;25.108;2022-12-07T01:35:46;16.00;;;8.07;;
21959;SDS011;11144;43.030;25.108;2022-12-07T01:37:18;21.02;;;8.32;;
21959;SDS011;11144;43.030;25.108;2022-12-07T01:38:54;21.10;;;8.68;;
21959;SDS011;11144;43.030;25.108;2022-12-07T01:40:29;19.75;;;8.40;;
21959;SDS011;11144;43.030;25.108;2022-12-07T01:42:02;18.75;;;7.72;;
21959;SDS011;11144;43.030;25.108;2022-12-07T01:44:07;21.92;;;8.93;;
21959;SDS011;11144;43.030;25.108;2022-12-07T01:45:46;16.02;;;7.50;;
21959;SDS011;11144;43.030;25.108;2022-12-07T01:47:19;21.20;;;8.40;;
21959;SDS011;11144;43.030;25.108;2022-12-07T01:48:54;19.40;;;8.10;;
21959;SDS011;11144;43.030;25.108;2022-12-07T01:50:26;19.42;;;7.97;;
21959;SDS011;11144;43.030;25.108;2022-12-07T01:52:06;18.27;;;7.57;;
21959;SDS011;11144;43.030;25.108;2022-12-07T01:53:47;19.60;;;8.45;;
21959;SDS011;11144;43.030;25.108;2022-12-07T01:55:19;18.85;;;9.35;;
21959;SDS011;11144;43.030;25.108;2022-12-07T01:56:53;15.70;;;8.70;;
21959;SDS011;11144;43.030;25.108;2022-12-07T01:58:30;16.58;;;8.60;;
21959;SDS011;11144;43.030;25.108;2022-12-07T02:00:07;16.77;;;8.40;;
21959;SDS011;11144;43.030;25.108;2022-12-07T02:01:45;20.05;;;8.93;;
21959;SDS011;11144;43.030;25.108;2022-12-07T02:03:21;21.85;;;10.13;;
21959;SDS011;11144;43.030;25.108;2022-12-07T02:04:59;20.05;;;8.55;;
21959;SDS011;11144;43.030;25.108;2022-12-07T02:06:33;19.27;;;9.20;;
21959;SDS011;11144;43.030;25.108;2022-12-07T02:08:08;18.63;;;10.00;;
21959;SDS011;11144;43.030;25.108;2022-12-07T02:09:44;23.85;;;9.55;;
21959;SDS011;11144;43.030;25.108;2022-12-07T02:11:17;61.08;;;17.15;;
21959;SDS011;11144;43.030;25.108;2022-12-07T02:12:52;39.33;;;13.40;;
21959;SDS011;11144;43.030;25.108;2022-12-07T02:14:29;34.17;;;11.98;;
21959;SDS011;11144;43.030;25.108;2022-12-07T02:16:10;45.13;;;14.63;;
21959;SDS011;11144;43.030;25.108;2022-12-07T02:17:56;30.88;;;11.35;;
21959;SDS011;11144;43.030;25.108;2022-12-07T02:21:45;46.42;;;24.65;;
21959;SDS011;11144;43.030;25.108;2022-12-07T02:23:33;33.38;;;15.57;;
21959;SDS011;11144;43.030;25.108;2022-12-07T02:25:15;30.35;;;12.90;;
21959;SDS011;11144;43.030;25.108;2022-12-07T02:27:07;30.27;;;12.98;;
21959;SDS011;11144;43.030;25.108;2022-12-07T02:29:03;30.00;;;11.02;;
21959;SDS011;11144;43.030;25.108;2022-12-07T02:30:47;24.98;;;11.60;;
21959;SDS011;11144;43.030;25.108;2022-12-07T02:32:23;23.98;;;10.50;;
21959;SDS011;11144;43.030;25.108;2022-12-07T02:34:01;26.90;;;11.55;;
21959;SDS011;11144;43.030;25.108;2022-12-07T02:35:40;25.45;;;10.90;;
21959;SDS011;11144;43.030;25.108;2022-12-07T02:37:29;31.65;;;12.90;;
21959;SDS011;11144;43.030;25.108;2022-12-07T02:39:11;28.77;;;11.30;;
21959;SDS011;11144;43.030;25.108;2022-12-07T02:40:51;24.75;;;10.48;;
21959;SDS011;11144;43.030;25.108;2022-12-07T02:42:28;27.55;;;11.23;;
21959;SDS011;11144;43.030;25.108;2022-12-07T02:44:10;23.92;;;10.27;;
21959;SDS011;11144;43.030;25.108;2022-12-07T02:45:47;22.98;;;10.30;;
21959;SDS011;11144;43.030;25.108;2022-12-07T02:47:23;25.88;;;12.15;;
21959;SDS011;11144;43.030;25.108;2022-12-07T02:48:56;21.15;;;9.80;;
21959;SDS011;11144;43.030;25.108;2022-12-07T02:50:31;27.52;;;10.82;;
21959;SDS011;11144;43.030;25.108;2022-12-07T02:52:06;24.60;;;11.73;;
21959;SDS011;11144;43.030;25.108;2022-12-07T02:53:40;29.98;;;11.40;;
21959;SDS011;11144;43.030;25.108;2022-12-07T02:55:17;25.20;;;11.38;;
21959;SDS011;11144;43.030;25.108;2022-12-07T02:56:55;26.65;;;10.30;;
21959;SDS011;11144;43.030;25.108;2022-12-07T02:58:41;25.75;;;10.70;;
21959;SDS011;11144;43.030;25.108;2022-12-07T03:00:24;28.48;;;10.45;;
21959;SDS011;11144;43.030;25.108;2022-12-07T03:02:00;25.70;;;10.18;;
21959;SDS011;11144;43.030;25.108;2022-12-07T03:03:46;27.23;;;10.40;;
21959;SDS011;11144;43.030;25.108;2022-12-07T03:05:37;24.90;;;11.63;;
21959;SDS011;11144;43.030;25.108;2022-12-07T03:07:24;25.02;;;10.98;;
21959;SDS011;11144;43.030;25.108;2022-12-07T03:09:08;23.83;;;10.30;;
21959;SDS011;11144;43.030;25.108;2022-12-07T03:10:48;27.67;;;11.45;;
21959;SDS011;11144;43.030;25.108;2022-12-07T03:12:29;24.65;;;11.57;;
21959;SDS011;11144;43.030;25.108;2022-12-07T03:14:07;27.63;;;11.85;;
21959;SDS011;11144;43.030;25.108;2022-12-07T03:15:53;29.75;;;11.52;;
21959;SDS011;11144;43.030;25.108;2022-12-07T03:17:35;26.02;;;11.60;;
21959;SDS011;11144;43.030;25.108;2022-12-07T03:19:13;27.08;;;11.57;;
21959;SDS011;11144;43.030;25.108;2022-12-07T03:20:50;23.35;;;10.55;;
21959;SDS011;11144;43.030;25.108;2022-12-07T03:22:27;28.02;;;11.27;;
21959;SDS011;11144;43.030;25.108;2022-12-07T03:24:06;25.17;;;10.90;;
21959;SDS011;11144;43.030;25.108;2022-12-07T03:25:45;29.67;;;14.07;;
21959;SDS011;11144;43.030;25.108;2022-12-07T03:27:31;29.42;;;13.55;;
21959;SDS011;11144;43.030;25.108;2022-12-07T03:29:10;27.58;;;12.32;;
21959;SDS011;11144;43.030;25.108;2022-12-07T03:30:52;26.13;;;11.85;;
21959;SDS011;11144;43.030;25.108;2022-12-07T03:32:31;35.90;;;12.32;;
21959;SDS011;11144;43.030;25.108;2022-12-07T03:34:11;29.33;;;11.00;;
21959;SDS011;11144;43.030;25.108;2022-12-07T03:35:52;27.40;;;10.75;;
21959;SDS011;11144;43.030;25.108;2022-12-07T03:37:34;29.88;;;13.00;;
21959;SDS011;11144;43.030;25.108;2022-12-07T03:39:14;24.33;;;11.18;;
21959;SDS011;11144;43.030;25.108;2022-12-07T03:40:58;28.73;;;11.25;;
21959;SDS011;11144;43.030;25.108;2022-12-07T03:42:35;30.80;;;12.70;;
21959;SDS011;11144;43.030;25.108;2022-12-07T03:44:08;29.98;;;12.45;;
21959;SDS011;11144;43.030;25.108;2022-12-07T03:45:43;28.90;;;11.68;;
21959;SDS011;11144;43.030;25.108;2022-12-07T03:47:26;25.75;;;10.68;;
21959;SDS011;11144;43.030;25.108;2022-12-07T03:49:06;40.78;;;15.05;;
21959;SDS011;11144;43.030;25.108;2022-12-07T03:50:47;35.65;;;13.43;;
21959;SDS011;11144;43.030;25.108;2022-12-07T03:52:26;28.80;;;11.18;;
21959;SDS011;11144;43.030;25.108;2022-12-07T03:54:06;66.18;;;29.38;;
21959;SDS011;11144;43.030;25.108;2022-12-07T03:55:44;69.97;;;31.83;;
21959;SDS011;11144;43.030;25.108;2022-12-07T03:57:20;34.42;;;13.20;;
21959;SDS011;11144;43.030;25.108;2022-12-07T03:58:55;28.17;;;12.25;;
21959;SDS011;11144;43.030;25.108;2022-12-07T04:00:28;31.60;;;12.45;;
21959;SDS011;11144;43.030;25.108;2022-12-07T04:02:03;33.03;;;13.20;;
21959;SDS011;11144;43.030;25.108;2022-12-07T04:03:40;34.80;;;13.05;;
21959;SDS011;11144;43.030;25.108;2022-12-07T04:05:13;34.05;;;12.98;;
21959;SDS011;11144;43.030;25.108;2022-12-07T04:06:46;33.20;;;12.52;;
21959;SDS011;11144;43.030;25.108;2022-12-07T04:08:19;37.30;;;11.65;;
21959;SDS011;11144;43.030;25.108;2022-12-07T04:09:53;31.60;;;12.15;;
21959;SDS011;11144;43.030;25.108;2022-12-07T04:11:29;31.08;;;11.77;;
21959;SDS011;11144;43.030;25.108;2022-12-07T04:13:01;29.02;;;12.07;;
21959;SDS011;11144;43.030;25.108;2022-12-07T04:14:35;28.30;;;11.57;;
21959;SDS011;11144;43.030;25.108;2022-12-07T04:16:08;25.92;;;10.93;;
21959;SDS011;11144;43.030;25.108;2022-12-07T04:17:42;32.65;;;12.68;;
21959;SDS011;11144;43.030;25.108;2022-12-07T04:19:18;30.60;;;11.35;;
21959;SDS011;11144;43.030;25.108;2022-12-07T04:20:53;28.98;;;10.80;;
21959;SDS011;11144;43.030;25.108;2022-12-07T04:22:26;31.45;;;13.18;;
21959;SDS011;11144;43.030;25.108;2022-12-07T04:24:00;30.27;;;12.77;;
21959;SDS011;11144;43.030;25.108;2022-12-07T04:25:33;32.80;;;12.93;;
21959;SDS011;11144;43.030;25.108;2022-12-07T04:27:06;34.15;;;13.07;;
21959;SDS011;11144;43.030;25.108;2022-12-07T04:28:40;27.70;;;11.88;;
21959;SDS011;11144;43.030;25.108;2022-12-07T04:30:13;30.23;;;12.07;;
21959;SDS011;11144;43.030;25.108;2022-12-07T04:31:47;44.70;;;20.25;;
21959;SDS011;11144;43.030;25.108;2022-12-07T04:33:20;85.05;;;42.20;;
21959;SDS011;11144;43.030;25.108;2022-12-07T04:34:56;30.52;;;14.57;;
21959;SDS011;11144;43.030;25.108;2022-12-07T04:36:30;28.27;;;11.75;;
21959;SDS011;11144;43.030;25.108;2022-12-07T04:38:04;27.38;;;11.73;;
21959;SDS011;11144;43.030;25.108;2022-12-07T04:39:37;66.20;;;32.10;;
21959;SDS011;11144;43.030;25.108;2022-12-07T04:41:10;45.70;;;22.38;;
21959;SDS011;11144;43.030;25.108;2022-12-07T04:42:44;26.42;;;11.77;;
21959;SDS011;11144;43.030;25.108;2022-12-07T04:44:18;30.00;;;12.13;;
21959;SDS011;11144;43.030;25.108;2022-12-07T04:45:52;23.80;;;10.45;;
21959;SDS011;11144;43.030;25.108;2022-12-07T04:47:25;29.63;;;11.35;;
21959;SDS011;11144;43.030;25.108;2022-12-07T04:48:58;30.25;;;11.82;;
21959;SDS011;11144;43.030;25.108;2022-12-07T04:50:33;24.98;;;10.98;;
21959;SDS011;11144;43.030;25.108;2022-12-07T04:52:16;23.10;;;10.52;;
21959;SDS011;11144;43.030;25.108;2022-12-07T04:53:50;31.05;;;12.32;;
21959;SDS011;11144;43.030;25.108;2022-12-07T04:55:22;35.28;;;13.45;;
21959;SDS011;11144;43.030;25.108;2022-12-07T04:56:56;32.35;;;12.40;;
21959;SDS011;11144;43.030;25.108;2022-12-07T04:58:30;35.63;;;14.05;;
21959;SDS011;11144;43.030;25.108;2022-12-07T05:00:04;43.45;;;17.42;;
21959;SDS011;11144;43.030;25.108;2022-12-07T05:01:38;43.60;;;17.10;;
21959;SDS011;11144;43.030;25.108;2022-12-07T05:03:12;42.88;;;15.68;;
21959;SDS011;11144;43.030;25.108;2022-12-07T05:04:45;41.40;;;17.98;;
21959;SDS011;11144;43.030;25.108;2022-12-07T05:06:20;56.67;;;21.45;;
21959;SDS011;11144;43.030;25.108;2022-12-07T05:07:53;53.42;;;20.02;;
21959;SDS011;11144;43.030;25.108;2022-12-07T05:09:26;46.83;;;18.83;;
21959;SDS011;11144;43.030;25.108;2022-12-07T05:11:00;48.17;;;18.88;;
21959;SDS011;11144;43.030;25.108;2022-12-07T05:12:34;43.75;;;17.50;;
21959;SDS011;11144;43.030;25.108;2022-12-07T05:14:09;39.55;;;16.15;;
21959;SDS011;11144;43.030;25.108;2022-12-07T05:15:46;34.60;;;14.50;;
21959;SDS011;11144;43.030;25.108;2022-12-07T05:17:20;42.35;;;16.52;;
21959;SDS011;11144;43.030;25.108;2022-12-07T05:18:56;42.25;;;16.40;;
21959;SDS011;11144;43.030;25.108;2022-12-07T05:20:29;27.80;;;11.85;;
21959;SDS011;11144;43.030;25.108;2022-12-07T05:22:11;22.55;;;9.10;;
21959;SDS011;11144;43.030;25.108;2022-12-07T05:23:46;19.50;;;8.98;;
21959;SDS011;11144;43.030;25.108;2022-12-07T05:25:19;19.05;;;8.75;;
21959;SDS011;11144;43.030;25.108;2022-12-07T05:26:52;18.25;;;8.32;;
21959;SDS011;11144;43.030;25.108;2022-12-07T05:28:26;30.75;;;14.60;;
21959;SDS011;11144;43.030;25.108;2022-12-07T05:29:59;103.32;;;40.83;;
21959;SDS011;11144;43.030;25.108;2022-12-07T05:31:34;92.93;;;37.45;;
21959;SDS011;11144;43.030;25.108;2022-12-07T05:33:07;69.35;;;30.77;;
21959;SDS011;11144;43.030;25.108;2022-12-07T05:34:41;27.65;;;13.88;;
21959;SDS011;11144;43.030;25.108;2022-12-07T05:36:14;28.08;;;13.65;;
21959;SDS011;11144;43.030;25.108;2022-12-07T05:37:49;20.25;;;10.70;;
21959;SDS011;11144;43.030;25.108;2022-12-07T05:39:22;20.85;;;11.30;;
21959;SDS011;11144;43.030;25.108;2022-12-07T05:40:57;32.35;;;16.75;;
21959;SDS011;11144;43.030;25.108;2022-12-07T05:42:34;27.35;;;14.57;;
21959;SDS011;11144;43.030;25.108;2022-12-07T05:44:06;38.35;;;17.65;;
21959;SDS011;11144;43.030;25.108;2022-12-07T05:45:40;29.05;;;14.20;;
21959;SDS011;11144;43.030;25.108;2022-12-07T05:47:14;34.08;;;15.88;;
21959;SDS011;11144;43.030;25.108;2022-12-07T05:48:48;32.92;;;14.80;;
21959;SDS011;11144;43.030;25.108;2022-12-07T05:50:22;30.77;;;15.48;;
21959;SDS011;11144;43.030;25.108;2022-12-07T05:52:04;25.85;;;11.73;;
21959;SDS011;11144;43.030;25.108;2022-12-07T05:53:39;24.67;;;12.27;;
21959;SDS011;11144;43.030;25.108;2022-12-07T05:55:13;29.27;;;14.25;;
21959;SDS011;11144;43.030;25.108;2022-12-07T05:56:46;25.50;;;13.18;;
21959;SDS011;11144;43.030;25.108;2022-12-07T05:58:19;30.38;;;13.45;;
21959;SDS011;11144;43.030;25.108;2022-12-07T06:00:11;22.33;;;11.23;;
21959;SDS011;11144;43.030;25.108;2022-12-07T06:01:46;20.92;;;9.30;;
21959;SDS011;11144;43.030;25.108;2022-12-07T06:03:19;22.15;;;10.90;;
21959;SDS011;11144;43.030;25.108;2022-12-07T06:04:53;20.42;;;9.93;;
21959;SDS011;11144;43.030;25.108;2022-12-07T06:06:26;21.33;;;11.18;;
21959;SDS011;11144;43.030;25.108;2022-12-07T06:07:59;27.85;;;13.40;;
21959;SDS011;11144;43.030;25.108;2022-12-07T06:09:38;25.80;;;12.02;;
21959;SDS011;11144;43.030;25.108;2022-12-07T06:11:11;25.55;;;12.45;;
21959;SDS011;11144;43.030;25.108;2022-12-07T06:13:02;23.27;;;10.77;;
21959;SDS011;11144;43.030;25.108;2022-12-07T06:14:35;45.88;;;12.82;;
21959;SDS011;11144;43.030;25.108;2022-12-07T06:16:10;41.08;;;14.25;;
21959;SDS011;11144;43.030;25.108;2022-12-07T06:17:43;37.03;;;13.90;;
21959;SDS011;11144;43.030;25.108;2022-12-07T06:19:17;34.05;;;13.05;;
21959;SDS011;11144;43.030;25.108;2022-12-07T06:20:50;18.48;;;10.23;;
21959;SDS011;11144;43.030;25.108;2022-12-07T06:22:24;24.13;;;10.00;;
21959;SDS011;11144;43.030;25.108;2022-12-07T06:23:57;25.67;;;11.82;;
21959;SDS011;11144;43.030;25.108;2022-12-07T06:25:33;20.67;;;11.32;;
21959;SDS011;11144;43.030;25.108;2022-12-07T06:27:07;22.88;;;10.63;;
21959;SDS011;11144;43.030;25.108;2022-12-07T06:28:41;20.02;;;9.50;;
21959;SDS011;11144;43.030;25.108;2022-12-07T06:30:14;18.98;;;8.38;;
21959;SDS011;11144;43.030;25.108;2022-12-07T06:31:48;24.83;;;10.98;;
21959;SDS011;11144;43.030;25.108;2022-12-07T06:33:22;20.50;;;10.65;;
21959;SDS011;11144;43.030;25.108;2022-12-07T06:34:56;22.02;;;9.77;;
21959;SDS011;11144;43.030;25.108;2022-12-07T06:36:29;17.80;;;8.85;;
21959;SDS011;11144;43.030;25.108;2022-12-07T06:38:03;19.92;;;8.68;;
21959;SDS011;11144;43.030;25.108;2022-12-07T06:39:37;24.10;;;12.60;;
21959;SDS011;11144;43.030;25.108;2022-12-07T06:41:12;19.40;;;8.85;;
21959;SDS011;11144;43.030;25.108;2022-12-07T06:42:45;22.25;;;11.27;;
21959;SDS011;11144;43.030;25.108;2022-12-07T06:44:20;18.58;;;9.35;;
21959;SDS011;11144;43.030;25.108;2022-12-07T06:45:55;22.13;;;9.93;;
21959;SDS011;11144;43.030;25.108;2022-12-07T06:47:28;30.33;;;11.85;;
21959;SDS011;11144;43.030;25.108;2022-12-07T06:49:12;26.55;;;12.88;;
21959;SDS011;11144;43.030;25.108;2022-12-07T06:50:46;27.83;;;14.18;;
21959;SDS011;11144;43.030;25.108;2022-12-07T06:52:26;23.77;;;12.13;;
21959;SDS011;11144;43.030;25.108;2022-12-07T06:53:59;23.05;;;11.07;;
21959;SDS011;11144;43.030;25.108;2022-12-07T06:55:32;25.45;;;13.45;;
21959;SDS011;11144;43.030;25.108;2022-12-07T06:57:07;33.03;;;15.95;;
21959;SDS011;11144;43.030;25.108;2022-12-07T06:58:41;31.77;;;15.88;;
21959;SDS011;11144;43.030;25.108;2022-12-07T07:00:14;29.45;;;13.82;;
21959;SDS011;11144;43.030;25.108;2022-12-07T07:01:53;26.83;;;13.88;;
21959;SDS011;11144;43.030;25.108;2022-12-07T07:03:26;33.65;;;13.85;;
21959;SDS011;11144;43.030;25.108;2022-12-07T07:05:00;27.10;;;14.30;;
21959;SDS011;11144;43.030;25.108;2022-12-07T07:06:34;29.67;;;14.80;;
21959;SDS011;11144;43.030;25.108;2022-12-07T07:08:07;26.73;;;13.80;;
21959;SDS011;11144;43.030;25.108;2022-12-07T07:09:57;28.88;;;14.55;;
21959;SDS011;11144;43.030;25.108;2022-12-07T07:11:31;32.08;;;15.23;;
21959;SDS011;11144;43.030;25.108;2022-12-07T07:13:06;34.63;;;17.00;;
21959;SDS011;11144;43.030;25.108;2022-12-07T07:14:40;30.33;;;14.68;;
21959;SDS011;11144;43.030;25.108;2022-12-07T07:16:14;32.88;;;16.85;;
21959;SDS011;11144;43.030;25.108;2022-12-07T07:17:49;33.50;;;15.45;;
21959;SDS011;11144;43.030;25.108;2022-12-07T07:19:22;34.28;;;16.33;;
21959;SDS011;11144;43.030;25.108;2022-12-07T07:20:55;33.72;;;15.32;;
21959;SDS011;11144;43.030;25.108;2022-12-07T07:22:29;26.65;;;14.48;;
21959;SDS011;11144;43.030;25.108;2022-12-07T07:24:03;36.08;;;16.67;;
21959;SDS011;11144;43.030;25.108;2022-12-07T07:25:37;27.05;;;13.73;;
21959;SDS011;11144;43.030;25.108;2022-12-07T07:27:12;23.88;;;13.68;;
21959;SDS011;11144;43.030;25.108;2022-12-07T07:28:47;25.25;;;13.43;;
21959;SDS011;11144;43.030;25.108;2022-12-07T07:30:21;31.67;;;15.38;;
21959;SDS011;11144;43.030;25.108;2022-12-07T07:31:54;28.40;;;14.23;;
21959;SDS011;11144;43.030;25.108;2022-12-07T07:33:33;32.60;;;15.50;;
21959;SDS011;11144;43.030;25.108;2022-12-07T07:35:07;29.17;;;15.25;;
21959;SDS011;11144;43.030;25.108;2022-12-07T07:36:41;34.33;;;16.85;;
21959;SDS011;11144;43.030;25.108;2022-12-07T07:38:14;36.60;;;17.40;;
21959;SDS011;11144;43.030;25.108;2022-12-07T07:39:48;39.58;;;16.95;;
21959;SDS011;11144;43.030;25.108;2022-12-07T07:41:21;34.10;;;17.60;;
21959;SDS011;11144;43.030;25.108;2022-12-07T07:42:55;32.55;;;15.25;;
21959;SDS011;11144;43.030;25.108;2022-12-07T07:44:30;33.08;;;15.40;;
21959;SDS011;11144;43.030;25.108;2022-12-07T07:46:06;31.08;;;15.35;;
21959;SDS011;11144;43.030;25.108;2022-12-07T07:47:40;33.65;;;16.67;;
21959;SDS011;11144;43.030;25.108;2022-12-07T07:49:13;28.88;;;15.40;;
21959;SDS011;11144;43.030;25.108;2022-12-07T07:50:47;29.83;;;14.88;;
21959;SDS011;11144;43.030;25.108;2022-12-07T07:52:20;37.00;;;18.88;;
21959;SDS011;11144;43.030;25.108;2022-12-07T07:53:53;43.95;;;22.27;;
21959;SDS011;11144;43.030;25.108;2022-12-07T07:55:28;38.30;;;17.42;;
21959;SDS011;11144;43.030;25.108;2022-12-07T07:57:01;42.28;;;22.90;;
21959;SDS011;11144;43.030;25.108;2022-12-07T07:58:35;48.40;;;25.42;;
21959;SDS011;11144;43.030;25.108;2022-12-07T08:00:13;43.03;;;23.17;;
21959;SDS011;11144;43.030;25.108;2022-12-07T08:01:48;36.30;;;20.10;;
21959;SDS011;11144;43.030;25.108;2022-12-07T08:03:21;34.33;;;18.27;;
21959;SDS011;11144;43.030;25.108;2022-12-07T08:04:55;37.67;;;18.58;;
21959;SDS011;11144;43.030;25.108;2022-12-07T08:06:29;31.50;;;15.98;;
21959;SDS011;11144;43.030;25.108;2022-12-07T08:08:03;40.30;;;19.35;;
21959;SDS011;11144;43.030;25.108;2022-12-07T08:09:37;34.17;;;16.98;;
21959;SDS011;11144;43.030;25.108;2022-12-07T08:11:10;33.58;;;17.35;;
21959;SDS011;11144;43.030;25.108;2022-12-07T08:12:45;30.45;;;15.63;;
21959;SDS011;11144;43.030;25.108;2022-12-07T08:14:36;32.60;;;15.48;;
21959;SDS011;11144;43.030;25.108;2022-12-07T08:16:11;39.47;;;21.05;;
21959;SDS011;11144;43.030;25.108;2022-12-07T08:17:47;35.53;;;18.15;;
21959;SDS011;11144;43.030;25.108;2022-12-07T08:19:20;34.33;;;16.63;;
21959;SDS011;11144;43.030;25.108;2022-12-07T08:20:58;33.40;;;17.58;;
21959;SDS011;11144;43.030;25.108;2022-12-07T08:22:31;35.28;;;17.80;;
21959;SDS011;11144;43.030;25.108;2022-12-07T08:24:08;35.38;;;18.25;;
21959;SDS011;11144;43.030;25.108;2022-12-07T08:25:42;34.40;;;17.35;;
21959;SDS011;11144;43.030;25.108;2022-12-07T08:27:16;38.38;;;19.83;;
21959;SDS011;11144;43.030;25.108;2022-12-07T08:28:50;34.63;;;17.40;;
21959;SDS011;11144;43.030;25.108;2022-12-07T08:30:23;34.47;;;17.95;;
21959;SDS011;11144;43.030;25.108;2022-12-07T08:31:58;38.53;;;19.38;;
21959;SDS011;11144;43.030;25.108;2022-12-07T08:33:40;38.75;;;19.73;;
21959;SDS011;11144;43.030;25.108;2022-12-07T08:35:15;39.42;;;23.75;;
21959;SDS011;11144;43.030;25.108;2022-12-07T08:36:50;43.20;;;23.63;;
21959;SDS011;11144;43.030;25.108;2022-12-07T08:38:23;38.65;;;19.95;;
21959;SDS011;11144;43.030;25.108;2022-12-07T08:40:03;39.90;;;21.38;;
21959;SDS011;11144;43.030;25.108;2022-12-07T08:41:37;44.63;;;23.50;;
21959;SDS011;11144;43.030;25.108;2022-12-07T08:43:10;41.55;;;20.73;;
21959;SDS011;11144;43.030;25.108;2022-12-07T08:44:44;45.05;;;22.10;;
21959;SDS011;11144;43.030;25.108;2022-12-07T08:46:19;37.38;;;20.77;;
21959;SDS011;11144;43.030;25.108;2022-12-07T08:48:01;40.55;;;21.30;;
21959;SDS011;11144;43.030;25.108;2022-12-07T08:49:39;42.20;;;21.10;;
21959;SDS011;11144;43.030;25.108;2022-12-07T08:51:15;41.75;;;22.80;;
21959;SDS011;11144;43.030;25.108;2022-12-07T08:52:50;39.22;;;20.40;;
21959;SDS011;11144;43.030;25.108;2022-12-07T08:54:25;36.80;;;19.48;;
21959;SDS011;11144;43.030;25.108;2022-12-07T08:56:01;41.92;;;19.83;;
21959;SDS011;11144;43.030;25.108;2022-12-07T08:57:34;41.17;;;21.45;;
21959;SDS011;11144;43.030;25.108;2022-12-07T08:59:09;45.78;;;21.88;;
21959;SDS011;11144;43.030;25.108;2022-12-07T09:00:45;45.92;;;23.45;;
21959;SDS011;11144;43.030;25.108;2022-12-07T09:02:18;45.90;;;22.15;;
21959;SDS011;11144;43.030;25.108;2022-12-07T09:03:54;44.63;;;23.42;;
21959;SDS011;11144;43.030;25.108;2022-12-07T09:05:27;39.90;;;20.00;;
21959;SDS011;11144;43.030;25.108;2022-12-07T09:07:01;38.03;;;19.35;;
21959;SDS011;11144;43.030;25.108;2022-12-07T09:08:36;35.25;;;18.17;;
21959;SDS011;11144;43.030;25.108;2022-12-07T09:10:14;36.28;;;19.45;;
21959;SDS011;11144;43.030;25.108;2022-12-07T09:11:47;36.85;;;19.33;;
21959;SDS011;11144;43.030;25.108;2022-12-07T09:13:21;33.38;;;21.33;;
21959;SDS011;11144;43.030;25.108;2022-12-07T09:14:55;38.55;;;20.17;;
21959;SDS011;11144;43.030;25.108;2022-12-07T09:16:28;40.33;;;20.90;;